sensor_id;sensor_type;location;lat;lon;timestamp;P1;durP1;ratioP1;P2;durP2;ratioP2
71202;SDS011;58929;47.490;19.090;2023-07-28T00:01:51;3.15;;;1.67;;
71202;SDS011;58929;47.490;19.090;2023-07-28T00:04:19;6.60;;;2.42;;
71202;SDS011;58929;47.490;19.090;2023-07-28T00:06:47;3.17;;;1.70;;
71202;SDS011;58929;47.490;19.090;2023-07-28T00:09:15;3.97;;;2.10;;
71202;SDS011;58929;47.490;19.090;2023-07-28T00:11:45;3.42;;;2.20;;
71202;SDS011;58929;47.490;19.090;2023-07-28T00:14:13;5.10;;;2.03;;
71202;SDS011;58929;47.490;19.090;2023-07-28T00:16:42;2.30;;;1.77;;
71202;SDS011;58929;47.490;19.090;2023-07-28T00:19:10;5.10;;;2.40;;
71202;SDS011;58929;47.490;19.090;2023-07-28T00:21:38;2.30;;;1.90;;
71202;SDS011;58929;47.490;19.090;2023-07-28T00:24:06;3.00;;;2.22;;
71202;SDS011;58929;47.490;19.090;2023-07-28T00:26:34;3.88;;;1.92;;
71202;SDS011;58929;47.490;19.090;2023-07-28T00:29:04;3.20;;;2.10;;
71202;SDS011;58929;47.490;19.090;2023-07-28T00:31:34;2.60;;;2.03;;
71202;SDS011;58929;47.490;19.090;2023-07-28T00:34:02;4.60;;;2.55;;
71202;SDS011;58929;47.490;19.090;2023-07-28T00:36:32;4.35;;;2.72;;
71202;SDS011;58929;47.490;19.090;2023-07-28T00:39:00;8.60;;;2.60;;
71202;SDS011;58929;47.490;19.090;2023-07-28T00:41:29;3.28;;;2.33;;
71202;SDS011;58929;47.490;19.090;2023-07-28T00:43:57;3.78;;;2.28;;
71202;SDS011;58929;47.490;19.090;2023-07-28T00:46:27;5.38;;;2.58;;
71202;SDS011;58929;47.490;19.090;2023-07-28T00:48:55;4.30;;;2.90;;
71202;SDS011;58929;47.490;19.090;2023-07-28T00:51:23;3.47;;;2.97;;
71202;SDS011;58929;47.490;19.090;2023-07-28T00:53:51;5.50;;;2.92;;
71202;SDS011;58929;47.490;19.090;2023-07-28T00:56:20;4.53;;;3.00;;
71202;SDS011;58929;47.490;19.090;2023-07-28T00:58:48;5.68;;;3.30;;
71202;SDS011;58929;47.490;19.090;2023-07-28T01:01:17;3.35;;;2.35;;
71202;SDS011;58929;47.490;19.090;2023-07-28T01:03:48;4.78;;;2.97;;
71202;SDS011;58929;47.490;19.090;2023-07-28T01:06:18;6.65;;;2.60;;
71202;SDS011;58929;47.490;19.090;2023-07-28T01:08:49;2.65;;;2.28;;
71202;SDS011;58929;47.490;19.090;2023-07-28T01:11:20;6.07;;;2.45;;
71202;SDS011;58929;47.490;19.090;2023-07-28T01:13:47;4.53;;;2.45;;
71202;SDS011;58929;47.490;19.090;2023-07-28T01:16:15;6.18;;;2.70;;
71202;SDS011;58929;47.490;19.090;2023-07-28T01:18:44;3.60;;;2.25;;
71202;SDS011;58929;47.490;19.090;2023-07-28T01:21:20;4.50;;;2.75;;
71202;SDS011;58929;47.490;19.090;2023-07-28T01:23:52;6.43;;;2.50;;
71202;SDS011;58929;47.490;19.090;2023-07-28T01:26:27;6.00;;;2.58;;
71202;SDS011;58929;47.490;19.090;2023-07-28T01:28:56;4.18;;;2.42;;
71202;SDS011;58929;47.490;19.090;2023-07-28T01:31:24;3.13;;;2.17;;
71202;SDS011;58929;47.490;19.090;2023-07-28T01:33:52;3.35;;;2.42;;
71202;SDS011;58929;47.490;19.090;2023-07-28T01:36:21;4.75;;;2.83;;
71202;SDS011;58929;47.490;19.090;2023-07-28T01:38:48;4.57;;;2.58;;
71202;SDS011;58929;47.490;19.090;2023-07-28T01:41:17;4.32;;;2.47;;
71202;SDS011;58929;47.490;19.090;2023-07-28T01:43:46;5.15;;;2.42;;
71202;SDS011;58929;47.490;19.090;2023-07-28T01:46:14;3.75;;;2.28;;
71202;SDS011;58929;47.490;19.090;2023-07-28T01:48:43;3.08;;;2.25;;
71202;SDS011;58929;47.490;19.090;2023-07-28T01:51:11;4.13;;;2.65;;
71202;SDS011;58929;47.490;19.090;2023-07-28T01:53:39;12.15;;;2.83;;
71202;SDS011;58929;47.490;19.090;2023-07-28T01:56:07;7.38;;;2.55;;
71202;SDS011;58929;47.490;19.090;2023-07-28T01:58:35;5.32;;;2.75;;
71202;SDS011;58929;47.490;19.090;2023-07-28T02:01:05;4.88;;;3.05;;
71202;SDS011;58929;47.490;19.090;2023-07-28T02:03:33;4.82;;;2.80;;
71202;SDS011;58929;47.490;19.090;2023-07-28T02:06:01;4.07;;;2.53;;
71202;SDS011;58929;47.490;19.090;2023-07-28T02:08:29;5.25;;;2.45;;
71202;SDS011;58929;47.490;19.090;2023-07-28T02:10:57;4.00;;;2.30;;
71202;SDS011;58929;47.490;19.090;2023-07-28T02:13:25;2.92;;;2.05;;
71202;SDS011;58929;47.490;19.090;2023-07-28T02:15:53;5.85;;;2.42;;
71202;SDS011;58929;47.490;19.090;2023-07-28T02:18:22;3.60;;;2.00;;
71202;SDS011;58929;47.490;19.090;2023-07-28T02:20:50;4.88;;;2.88;;
71202;SDS011;58929;47.490;19.090;2023-07-28T02:23:18;4.15;;;2.35;;
71202;SDS011;58929;47.490;19.090;2023-07-28T02:25:46;5.20;;;2.95;;
71202;SDS011;58929;47.490;19.090;2023-07-28T02:28:15;5.60;;;2.72;;
71202;SDS011;58929;47.490;19.090;2023-07-28T02:30:43;2.55;;;2.20;;
71202;SDS011;58929;47.490;19.090;2023-07-28T02:33:11;6.45;;;2.30;;
71202;SDS011;58929;47.490;19.090;2023-07-28T02:35:41;3.55;;;2.10;;
71202;SDS011;58929;47.490;19.090;2023-07-28T02:38:09;3.70;;;2.50;;
71202;SDS011;58929;47.490;19.090;2023-07-28T02:40:37;5.72;;;2.40;;
71202;SDS011;58929;47.490;19.090;2023-07-28T02:43:05;7.28;;;2.22;;
71202;SDS011;58929;47.490;19.090;2023-07-28T02:45:33;4.45;;;2.38;;
71202;SDS011;58929;47.490;19.090;2023-07-28T02:48:01;6.45;;;2.78;;
71202;SDS011;58929;47.490;19.090;2023-07-28T02:50:29;3.65;;;2.28;;
71202;SDS011;58929;47.490;19.090;2023-07-28T02:52:58;6.55;;;2.85;;
71202;SDS011;58929;47.490;19.090;2023-07-28T02:55:26;4.75;;;2.83;;
71202;SDS011;58929;47.490;19.090;2023-07-28T02:57:54;4.43;;;2.53;;
71202;SDS011;58929;47.490;19.090;2023-07-28T03:00:22;5.45;;;2.63;;
71202;SDS011;58929;47.490;19.090;2023-07-28T03:02:50;6.32;;;3.20;;
71202;SDS011;58929;47.490;19.090;2023-07-28T03:05:18;6.63;;;3.55;;
71202;SDS011;58929;47.490;19.090;2023-07-28T03:08:08;4.18;;;2.50;;
71202;SDS011;58929;47.490;19.090;2023-07-28T03:10:36;4.35;;;2.65;;
71202;SDS011;58929;47.490;19.090;2023-07-28T03:13:04;4.10;;;2.90;;
71202;SDS011;58929;47.490;19.090;2023-07-28T03:15:32;6.85;;;2.72;;
71202;SDS011;58929;47.490;19.090;2023-07-28T03:18:00;5.35;;;3.17;;
71202;SDS011;58929;47.490;19.090;2023-07-28T03:20:28;9.07;;;2.80;;
71202;SDS011;58929;47.490;19.090;2023-07-28T03:22:56;6.20;;;3.22;;
71202;SDS011;58929;47.490;19.090;2023-07-28T03:25:26;3.35;;;2.83;;
71202;SDS011;58929;47.490;19.090;2023-07-28T03:27:54;3.58;;;2.72;;
71202;SDS011;58929;47.490;19.090;2023-07-28T03:30:22;5.30;;;2.97;;
71202;SDS011;58929;47.490;19.090;2023-07-28T03:32:50;7.55;;;2.97;;
71202;SDS011;58929;47.490;19.090;2023-07-28T03:35:18;5.53;;;3.15;;
71202;SDS011;58929;47.490;19.090;2023-07-28T03:37:55;4.47;;;3.05;;
71202;SDS011;58929;47.490;19.090;2023-07-28T03:40:23;7.13;;;3.20;;
71202;SDS011;58929;47.490;19.090;2023-07-28T03:42:54;5.90;;;3.35;;
71202;SDS011;58929;47.490;19.090;2023-07-28T03:45:23;11.05;;;3.40;;
71202;SDS011;58929;47.490;19.090;2023-07-28T03:47:51;9.20;;;4.60;;
71202;SDS011;58929;47.490;19.090;2023-07-28T03:50:19;7.35;;;3.15;;
71202;SDS011;58929;47.490;19.090;2023-07-28T03:52:47;7.00;;;2.83;;
71202;SDS011;58929;47.490;19.090;2023-07-28T03:55:15;4.13;;;3.17;;
71202;SDS011;58929;47.490;19.090;2023-07-28T03:57:43;5.72;;;2.95;;
71202;SDS011;58929;47.490;19.090;2023-07-28T04:00:13;8.00;;;3.10;;
71202;SDS011;58929;47.490;19.090;2023-07-28T04:02:41;7.85;;;3.60;;
71202;SDS011;58929;47.490;19.090;2023-07-28T04:05:09;8.30;;;3.20;;
71202;SDS011;58929;47.490;19.090;2023-07-28T04:07:37;5.40;;;2.78;;
71202;SDS011;58929;47.490;19.090;2023-07-28T04:10:06;4.20;;;2.95;;
71202;SDS011;58929;47.490;19.090;2023-07-28T04:12:34;4.32;;;2.78;;
71202;SDS011;58929;47.490;19.090;2023-07-28T04:15:02;7.93;;;3.28;;
71202;SDS011;58929;47.490;19.090;2023-07-28T04:17:31;7.80;;;3.08;;
71202;SDS011;58929;47.490;19.090;2023-07-28T04:19:59;7.82;;;2.72;;
71202;SDS011;58929;47.490;19.090;2023-07-28T04:22:27;6.43;;;3.50;;
71202;SDS011;58929;47.490;19.090;2023-07-28T04:24:56;4.07;;;2.85;;
71202;SDS011;58929;47.490;19.090;2023-07-28T04:27:24;3.95;;;2.67;;
71202;SDS011;58929;47.490;19.090;2023-07-28T04:29:59;4.18;;;2.50;;
71202;SDS011;58929;47.490;19.090;2023-07-28T04:32:27;5.28;;;2.83;;
71202;SDS011;58929;47.490;19.090;2023-07-28T04:35:02;5.63;;;3.00;;
71202;SDS011;58929;47.490;19.090;2023-07-28T04:37:59;6.05;;;2.88;;
71202;SDS011;58929;47.490;19.090;2023-07-28T04:40:40;6.93;;;3.25;;
71202;SDS011;58929;47.490;19.090;2023-07-28T04:43:09;8.73;;;3.88;;
71202;SDS011;58929;47.490;19.090;2023-07-28T04:45:38;5.28;;;3.00;;
71202;SDS011;58929;47.490;19.090;2023-07-28T04:48:13;4.57;;;2.90;;
71202;SDS011;58929;47.490;19.090;2023-07-28T04:50:42;6.97;;;3.25;;
71202;SDS011;58929;47.490;19.090;2023-07-28T04:53:29;10.40;;;2.97;;
71202;SDS011;58929;47.490;19.090;2023-07-28T04:56:17;5.47;;;2.60;;
71202;SDS011;58929;47.490;19.090;2023-07-28T04:58:45;12.25;;;2.60;;
71202;SDS011;58929;47.490;19.090;2023-07-28T05:01:13;3.38;;;2.67;;
71202;SDS011;58929;47.490;19.090;2023-07-28T05:03:45;4.05;;;2.83;;
71202;SDS011;58929;47.490;19.090;2023-07-28T05:06:24;5.60;;;2.55;;
71202;SDS011;58929;47.490;19.090;2023-07-28T05:08:52;9.25;;;2.60;;
71202;SDS011;58929;47.490;19.090;2023-07-28T05:11:27;5.43;;;3.13;;
71202;SDS011;58929;47.490;19.090;2023-07-28T05:13:55;5.38;;;3.28;;
71202;SDS011;58929;47.490;19.090;2023-07-28T05:16:24;5.32;;;3.47;;
71202;SDS011;58929;47.490;19.090;2023-07-28T05:19:11;6.78;;;3.47;;
71202;SDS011;58929;47.490;19.090;2023-07-28T05:22:12;4.72;;;2.85;;
71202;SDS011;58929;47.490;19.090;2023-07-28T05:24:47;7.10;;;3.70;;
71202;SDS011;58929;47.490;19.090;2023-07-28T05:27:19;8.90;;;3.60;;
71202;SDS011;58929;47.490;19.090;2023-07-28T05:29:47;7.38;;;3.00;;
71202;SDS011;58929;47.490;19.090;2023-07-28T05:32:15;7.43;;;4.00;;
71202;SDS011;58929;47.490;19.090;2023-07-28T05:35:02;7.85;;;3.53;;
71202;SDS011;58929;47.490;19.090;2023-07-28T05:37:32;10.90;;;3.38;;
71202;SDS011;58929;47.490;19.090;2023-07-28T05:40:03;5.22;;;3.42;;
71202;SDS011;58929;47.490;19.090;2023-07-28T05:42:33;8.55;;;3.78;;
71202;SDS011;58929;47.490;19.090;2023-07-28T05:45:01;7.55;;;3.58;;
71202;SDS011;58929;47.490;19.090;2023-07-28T05:47:30;10.15;;;2.90;;
71202;SDS011;58929;47.490;19.090;2023-07-28T05:49:58;9.27;;;3.67;;
71202;SDS011;58929;47.490;19.090;2023-07-28T05:52:32;12.48;;;4.15;;
71202;SDS011;58929;47.490;19.090;2023-07-28T05:55:01;6.35;;;3.67;;
71202;SDS011;58929;47.490;19.090;2023-07-28T05:57:29;6.78;;;3.35;;
71202;SDS011;58929;47.490;19.090;2023-07-28T06:00:00;7.38;;;3.95;;
71202;SDS011;58929;47.490;19.090;2023-07-28T06:02:39;8.70;;;3.80;;
71202;SDS011;58929;47.490;19.090;2023-07-28T06:05:12;8.15;;;3.90;;
71202;SDS011;58929;47.490;19.090;2023-07-28T06:07:41;8.77;;;4.00;;
71202;SDS011;58929;47.490;19.090;2023-07-28T06:10:09;8.35;;;3.97;;
71202;SDS011;58929;47.490;19.090;2023-07-28T06:12:37;5.63;;;3.58;;
71202;SDS011;58929;47.490;19.090;2023-07-28T06:15:06;12.23;;;3.88;;
71202;SDS011;58929;47.490;19.090;2023-07-28T06:17:36;7.95;;;3.90;;
71202;SDS011;58929;47.490;19.090;2023-07-28T06:20:05;10.50;;;3.35;;
71202;SDS011;58929;47.490;19.090;2023-07-28T06:22:33;7.47;;;3.40;;
71202;SDS011;58929;47.490;19.090;2023-07-28T06:25:03;9.45;;;3.33;;
71202;SDS011;58929;47.490;19.090;2023-07-28T06:27:31;6.00;;;3.40;;
71202;SDS011;58929;47.490;19.090;2023-07-28T06:29:59;6.85;;;3.53;;
71202;SDS011;58929;47.490;19.090;2023-07-28T06:32:27;8.93;;;4.38;;
71202;SDS011;58929;47.490;19.090;2023-07-28T06:34:55;11.52;;;3.58;;
71202;SDS011;58929;47.490;19.090;2023-07-28T06:37:24;9.43;;;2.92;;
71202;SDS011;58929;47.490;19.090;2023-07-28T06:39:52;9.30;;;3.30;;
71202;SDS011;58929;47.490;19.090;2023-07-28T06:42:23;8.02;;;2.50;;
71202;SDS011;58929;47.490;19.090;2023-07-28T06:44:55;7.75;;;3.63;;
71202;SDS011;58929;47.490;19.090;2023-07-28T06:47:23;5.70;;;3.03;;
71202;SDS011;58929;47.490;19.090;2023-07-28T06:49:52;7.30;;;2.65;;
71202;SDS011;58929;47.490;19.090;2023-07-28T06:52:20;13.20;;;3.05;;
71202;SDS011;58929;47.490;19.090;2023-07-28T06:54:48;12.50;;;2.90;;
71202;SDS011;58929;47.490;19.090;2023-07-28T06:57:16;5.30;;;2.22;;
71202;SDS011;58929;47.490;19.090;2023-07-28T06:59:48;4.32;;;2.70;;
71202;SDS011;58929;47.490;19.090;2023-07-28T07:02:16;3.65;;;2.25;;
71202;SDS011;58929;47.490;19.090;2023-07-28T07:04:44;4.53;;;2.28;;
71202;SDS011;58929;47.490;19.090;2023-07-28T07:07:12;8.77;;;2.50;;
71202;SDS011;58929;47.490;19.090;2023-07-28T07:09:40;4.10;;;2.45;;
71202;SDS011;58929;47.490;19.090;2023-07-28T07:12:08;7.65;;;2.80;;
71202;SDS011;58929;47.490;19.090;2023-07-28T07:14:37;6.63;;;2.90;;
71202;SDS011;58929;47.490;19.090;2023-07-28T07:17:07;12.00;;;2.92;;
71202;SDS011;58929;47.490;19.090;2023-07-28T07:19:35;8.25;;;2.05;;
71202;SDS011;58929;47.490;19.090;2023-07-28T07:22:03;4.30;;;2.40;;
71202;SDS011;58929;47.490;19.090;2023-07-28T07:24:31;2.95;;;2.13;;
71202;SDS011;58929;47.490;19.090;2023-07-28T07:26:59;7.38;;;2.40;;
71202;SDS011;58929;47.490;19.090;2023-07-28T07:29:27;6.82;;;2.15;;
71202;SDS011;58929;47.490;19.090;2023-07-28T07:31:55;3.17;;;2.10;;
71202;SDS011;58929;47.490;19.090;2023-07-28T07:34:25;5.25;;;2.40;;
71202;SDS011;58929;47.490;19.090;2023-07-28T07:36:53;6.63;;;2.10;;
71202;SDS011;58929;47.490;19.090;2023-07-28T07:39:22;2.97;;;1.90;;
71202;SDS011;58929;47.490;19.090;2023-07-28T07:41:50;2.67;;;1.90;;
71202;SDS011;58929;47.490;19.090;2023-07-28T07:44:18;4.20;;;2.10;;
71202;SDS011;58929;47.490;19.090;2023-07-28T07:46:47;3.53;;;2.20;;
71202;SDS011;58929;47.490;19.090;2023-07-28T07:49:15;3.75;;;2.17;;
71202;SDS011;58929;47.490;19.090;2023-07-28T07:51:44;3.70;;;2.17;;
71202;SDS011;58929;47.490;19.090;2023-07-28T07:54:12;6.65;;;2.50;;
71202;SDS011;58929;47.490;19.090;2023-07-28T07:56:43;4.88;;;2.20;;
71202;SDS011;58929;47.490;19.090;2023-07-28T07:59:11;3.45;;;2.28;;
71202;SDS011;58929;47.490;19.090;2023-07-28T08:01:39;3.80;;;2.17;;
71202;SDS011;58929;47.490;19.090;2023-07-28T08:04:07;4.13;;;2.28;;
71202;SDS011;58929;47.490;19.090;2023-07-28T08:06:36;5.45;;;2.58;;
71202;SDS011;58929;47.490;19.090;2023-07-28T08:09:05;5.20;;;2.60;;
71202;SDS011;58929;47.490;19.090;2023-07-28T08:11:33;12.60;;;2.33;;
71202;SDS011;58929;47.490;19.090;2023-07-28T08:14:02;4.65;;;2.65;;
71202;SDS011;58929;47.490;19.090;2023-07-28T08:16:30;8.98;;;2.78;;
71202;SDS011;58929;47.490;19.090;2023-07-28T08:18:58;5.07;;;2.85;;
71202;SDS011;58929;47.490;19.090;2023-07-28T08:21:26;10.13;;;2.28;;
71202;SDS011;58929;47.490;19.090;2023-07-28T08:23:54;4.20;;;2.10;;
71202;SDS011;58929;47.490;19.090;2023-07-28T08:26:23;11.65;;;3.45;;
71202;SDS011;58929;47.490;19.090;2023-07-28T08:28:51;5.28;;;2.30;;
71202;SDS011;58929;47.490;19.090;2023-07-28T08:31:19;20.25;;;2.75;;
71202;SDS011;58929;47.490;19.090;2023-07-28T08:33:47;9.85;;;1.98;;
71202;SDS011;58929;47.490;19.090;2023-07-28T08:36:15;2.88;;;2.13;;
71202;SDS011;58929;47.490;19.090;2023-07-28T08:38:44;10.82;;;2.47;;
71202;SDS011;58929;47.490;19.090;2023-07-28T08:41:12;6.05;;;2.63;;
71202;SDS011;58929;47.490;19.090;2023-07-28T08:43:42;7.18;;;2.72;;
71202;SDS011;58929;47.490;19.090;2023-07-28T08:46:10;6.72;;;2.15;;
71202;SDS011;58929;47.490;19.090;2023-07-28T08:48:38;3.95;;;2.00;;
71202;SDS011;58929;47.490;19.090;2023-07-28T08:51:06;5.32;;;2.85;;
71202;SDS011;58929;47.490;19.090;2023-07-28T08:53:35;12.55;;;2.33;;
71202;SDS011;58929;47.490;19.090;2023-07-28T08:56:03;3.22;;;2.20;;
71202;SDS011;58929;47.490;19.090;2023-07-28T08:58:32;6.72;;;2.10;;
71202;SDS011;58929;47.490;19.090;2023-07-28T09:01:02;5.88;;;2.40;;
71202;SDS011;58929;47.490;19.090;2023-07-28T09:03:31;4.50;;;2.00;;
71202;SDS011;58929;47.490;19.090;2023-07-28T09:06:00;3.40;;;2.20;;
71202;SDS011;58929;47.490;19.090;2023-07-28T09:08:30;8.52;;;2.30;;
71202;SDS011;58929;47.490;19.090;2023-07-28T09:11:01;4.47;;;2.13;;
71202;SDS011;58929;47.490;19.090;2023-07-28T09:13:35;3.22;;;2.13;;
71202;SDS011;58929;47.490;19.090;2023-07-28T09:16:04;6.47;;;2.25;;
71202;SDS011;58929;47.490;19.090;2023-07-28T09:18:32;14.00;;;2.40;;
71202;SDS011;58929;47.490;19.090;2023-07-28T09:21:00;4.25;;;2.00;;
71202;SDS011;58929;47.490;19.090;2023-07-28T09:23:29;3.45;;;2.28;;
71202;SDS011;58929;47.490;19.090;2023-07-28T09:26:00;3.42;;;2.10;;
71202;SDS011;58929;47.490;19.090;2023-07-28T09:28:36;10.40;;;2.53;;
71202;SDS011;58929;47.490;19.090;2023-07-28T09:31:06;6.93;;;2.13;;
71202;SDS011;58929;47.490;19.090;2023-07-28T09:33:35;10.35;;;2.28;;
71202;SDS011;58929;47.490;19.090;2023-07-28T09:36:07;12.55;;;2.60;;
71202;SDS011;58929;47.490;19.090;2023-07-28T09:38:36;10.98;;;2.40;;
71202;SDS011;58929;47.490;19.090;2023-07-28T09:41:04;15.90;;;2.45;;
71202;SDS011;58929;47.490;19.090;2023-07-28T09:43:36;4.20;;;2.00;;
71202;SDS011;58929;47.490;19.090;2023-07-28T09:46:06;6.93;;;2.13;;
71202;SDS011;58929;47.490;19.090;2023-07-28T09:48:34;6.97;;;2.60;;
71202;SDS011;58929;47.490;19.090;2023-07-28T09:51:05;12.60;;;2.63;;
71202;SDS011;58929;47.490;19.090;2023-07-28T09:53:45;4.22;;;2.20;;
71202;SDS011;58929;47.490;19.090;2023-07-28T09:56:14;4.32;;;1.98;;
71202;SDS011;58929;47.490;19.090;2023-07-28T09:58:44;7.05;;;2.20;;
71202;SDS011;58929;47.490;19.090;2023-07-28T10:01:17;6.68;;;1.90;;
71202;SDS011;58929;47.490;19.090;2023-07-28T10:03:45;8.55;;;2.22;;
71202;SDS011;58929;47.490;19.090;2023-07-28T10:06:15;2.05;;;1.73;;
71202;SDS011;58929;47.490;19.090;2023-07-28T10:08:45;13.43;;;2.10;;
71202;SDS011;58929;47.490;19.090;2023-07-28T10:11:14;3.22;;;1.83;;
71202;SDS011;58929;47.490;19.090;2023-07-28T10:13:44;3.85;;;2.03;;
71202;SDS011;58929;47.490;19.090;2023-07-28T10:16:13;8.48;;;1.95;;
71202;SDS011;58929;47.490;19.090;2023-07-28T10:18:43;2.78;;;2.05;;
71202;SDS011;58929;47.490;19.090;2023-07-28T10:21:19;3.13;;;1.90;;
71202;SDS011;58929;47.490;19.090;2023-07-28T10:23:53;7.85;;;1.95;;
71202;SDS011;58929;47.490;19.090;2023-07-28T10:26:30;3.15;;;2.22;;
71202;SDS011;58929;47.490;19.090;2023-07-28T10:29:07;3.10;;;1.80;;
71202;SDS011;58929;47.490;19.090;2023-07-28T10:31:36;3.22;;;2.00;;
71202;SDS011;58929;47.490;19.090;2023-07-28T10:34:05;4.43;;;2.03;;
71202;SDS011;58929;47.490;19.090;2023-07-28T10:36:34;3.53;;;1.95;;
71202;SDS011;58929;47.490;19.090;2023-07-28T10:39:12;5.90;;;2.00;;
71202;SDS011;58929;47.490;19.090;2023-07-28T10:41:40;7.47;;;1.90;;
71202;SDS011;58929;47.490;19.090;2023-07-28T10:44:08;3.00;;;1.85;;
71202;SDS011;58929;47.490;19.090;2023-07-28T10:46:37;16.30;;;2.30;;
71202;SDS011;58929;47.490;19.090;2023-07-28T10:49:08;6.88;;;2.20;;
71202;SDS011;58929;47.490;19.090;2023-07-28T10:51:36;3.85;;;2.63;;
71202;SDS011;58929;47.490;19.090;2023-07-28T10:54:04;6.72;;;1.98;;
71202;SDS011;58929;47.490;19.090;2023-07-28T10:56:33;5.40;;;2.10;;
71202;SDS011;58929;47.490;19.090;2023-07-28T10:59:02;10.30;;;3.10;;
71202;SDS011;58929;47.490;19.090;2023-07-28T11:01:31;6.90;;;2.08;;
71202;SDS011;58929;47.490;19.090;2023-07-28T11:04:09;3.72;;;2.22;;
71202;SDS011;58929;47.490;19.090;2023-07-28T11:06:40;7.88;;;3.10;;
71202;SDS011;58929;47.490;19.090;2023-07-28T11:09:10;2.72;;;2.10;;
71202;SDS011;58929;47.490;19.090;2023-07-28T11:11:38;17.20;;;2.72;;
71202;SDS011;58929;47.490;19.090;2023-07-28T11:14:12;11.30;;;2.58;;
71202;SDS011;58929;47.490;19.090;2023-07-28T11:16:40;5.45;;;2.20;;
71202;SDS011;58929;47.490;19.090;2023-07-28T11:19:11;6.10;;;1.85;;
71202;SDS011;58929;47.490;19.090;2023-07-28T11:21:40;2.97;;;1.85;;
71202;SDS011;58929;47.490;19.090;2023-07-28T11:24:09;4.20;;;1.83;;
71202;SDS011;58929;47.490;19.090;2023-07-28T11:26:37;5.97;;;2.20;;
71202;SDS011;58929;47.490;19.090;2023-07-28T11:29:05;4.40;;;2.15;;
71202;SDS011;58929;47.490;19.090;2023-07-28T11:31:34;3.92;;;2.10;;
71202;SDS011;58929;47.490;19.090;2023-07-28T11:34:02;3.75;;;1.83;;
71202;SDS011;58929;47.490;19.090;2023-07-28T11:36:31;6.15;;;2.38;;
71202;SDS011;58929;47.490;19.090;2023-07-28T11:39:00;4.35;;;2.22;;
71202;SDS011;58929;47.490;19.090;2023-07-28T11:41:32;5.10;;;2.40;;
71202;SDS011;58929;47.490;19.090;2023-07-28T11:44:00;3.72;;;1.70;;
71202;SDS011;58929;47.490;19.090;2023-07-28T11:46:33;2.47;;;1.88;;
71202;SDS011;58929;47.490;19.090;2023-07-28T11:49:06;4.30;;;2.20;;
71202;SDS011;58929;47.490;19.090;2023-07-28T11:51:38;3.17;;;2.00;;
71202;SDS011;58929;47.490;19.090;2023-07-28T11:54:06;3.47;;;2.17;;
71202;SDS011;58929;47.490;19.090;2023-07-28T11:56:34;2.67;;;1.80;;
71202;SDS011;58929;47.490;19.090;2023-07-28T11:59:03;2.40;;;2.03;;
71202;SDS011;58929;47.490;19.090;2023-07-28T12:01:31;3.15;;;1.92;;
71202;SDS011;58929;47.490;19.090;2023-07-28T12:04:19;3.60;;;2.20;;
71202;SDS011;58929;47.490;19.090;2023-07-28T12:07:01;3.72;;;2.10;;
71202;SDS011;58929;47.490;19.090;2023-07-28T12:09:32;3.13;;;2.03;;
71202;SDS011;58929;47.490;19.090;2023-07-28T12:12:01;8.50;;;2.40;;
71202;SDS011;58929;47.490;19.090;2023-07-28T12:14:34;4.07;;;1.95;;
71202;SDS011;58929;47.490;19.090;2023-07-28T12:17:11;3.05;;;2.00;;
71202;SDS011;58929;47.490;19.090;2023-07-28T12:19:42;3.10;;;1.70;;
71202;SDS011;58929;47.490;19.090;2023-07-28T12:22:25;3.35;;;1.95;;
71202;SDS011;58929;47.490;19.090;2023-07-28T12:24:53;3.63;;;1.90;;
71202;SDS011;58929;47.490;19.090;2023-07-28T12:27:21;3.63;;;1.95;;
71202;SDS011;58929;47.490;19.090;2023-07-28T12:29:58;6.88;;;2.50;;
71202;SDS011;58929;47.490;19.090;2023-07-28T12:32:30;3.65;;;2.05;;
71202;SDS011;58929;47.490;19.090;2023-07-28T12:35:03;13.82;;;1.98;;
71202;SDS011;58929;47.490;19.090;2023-07-28T12:37:35;3.70;;;1.90;;
71202;SDS011;58929;47.490;19.090;2023-07-28T12:40:07;4.43;;;2.35;;
71202;SDS011;58929;47.490;19.090;2023-07-28T12:42:57;5.00;;;2.00;;
71202;SDS011;58929;47.490;19.090;2023-07-28T12:45:28;3.33;;;2.30;;
71202;SDS011;58929;47.490;19.090;2023-07-28T12:48:16;4.85;;;1.40;;
71202;SDS011;58929;47.490;19.090;2023-07-28T12:50:47;2.85;;;1.77;;
71202;SDS011;58929;47.490;19.090;2023-07-28T12:53:19;3.38;;;2.00;;
71202;SDS011;58929;47.490;19.090;2023-07-28T12:55:49;5.72;;;2.17;;
71202;SDS011;58929;47.490;19.090;2023-07-28T12:58:20;2.20;;;2.00;;
71202;SDS011;58929;47.490;19.090;2023-07-28T13:00:51;3.20;;;2.10;;
71202;SDS011;58929;47.490;19.090;2023-07-28T13:03:22;3.45;;;1.85;;
71202;SDS011;58929;47.490;19.090;2023-07-28T13:05:50;9.02;;;2.17;;
71202;SDS011;58929;47.490;19.090;2023-07-28T13:08:33;4.00;;;2.13;;
71202;SDS011;58929;47.490;19.090;2023-07-28T13:11:04;11.02;;;1.80;;
71202;SDS011;58929;47.490;19.090;2023-07-28T13:13:35;2.05;;;1.65;;
71202;SDS011;58929;47.490;19.090;2023-07-28T13:16:05;2.63;;;1.90;;
71202;SDS011;58929;47.490;19.090;2023-07-28T13:18:38;3.33;;;2.05;;
71202;SDS011;58929;47.490;19.090;2023-07-28T13:21:07;2.60;;;2.08;;
71202;SDS011;58929;47.490;19.090;2023-07-28T13:23:38;2.17;;;1.98;;
71202;SDS011;58929;47.490;19.090;2023-07-28T13:26:06;5.28;;;1.92;;
71202;SDS011;58929;47.490;19.090;2023-07-28T13:28:34;2.85;;;1.90;;
71202;SDS011;58929;47.490;19.090;2023-07-28T13:31:02;3.30;;;2.05;;
71202;SDS011;58929;47.490;19.090;2023-07-28T13:33:31;4.90;;;2.22;;
71202;SDS011;58929;47.490;19.090;2023-07-28T13:35:59;5.30;;;1.98;;
71202;SDS011;58929;47.490;19.090;2023-07-28T13:38:30;3.28;;;2.05;;
71202;SDS011;58929;47.490;19.090;2023-07-28T13:41:00;4.47;;;2.20;;
71202;SDS011;58929;47.490;19.090;2023-07-28T13:43:28;5.32;;;2.17;;
71202;SDS011;58929;47.490;19.090;2023-07-28T13:46:27;8.02;;;2.10;;
71202;SDS011;58929;47.490;19.090;2023-07-28T13:48:55;20.92;;;3.33;;
71202;SDS011;58929;47.490;19.090;2023-07-28T13:51:33;3.38;;;1.95;;
71202;SDS011;58929;47.490;19.090;2023-07-28T13:54:04;4.35;;;2.20;;
71202;SDS011;58929;47.490;19.090;2023-07-28T13:56:36;4.13;;;2.35;;
71202;SDS011;58929;47.490;19.090;2023-07-28T13:59:24;3.55;;;2.22;;
71202;SDS011;58929;47.490;19.090;2023-07-28T14:01:52;3.10;;;1.83;;
71202;SDS011;58929;47.490;19.090;2023-07-28T14:04:22;4.70;;;2.65;;
71202;SDS011;58929;47.490;19.090;2023-07-28T14:06:50;3.28;;;1.77;;
71202;SDS011;58929;47.490;19.090;2023-07-28T14:09:18;2.58;;;1.80;;
71202;SDS011;58929;47.490;19.090;2023-07-28T14:11:48;6.78;;;2.30;;
71202;SDS011;58929;47.490;19.090;2023-07-28T14:14:16;2.20;;;1.70;;
71202;SDS011;58929;47.490;19.090;2023-07-28T14:16:44;5.88;;;1.70;;
71202;SDS011;58929;47.490;19.090;2023-07-28T14:19:12;2.97;;;2.10;;
71202;SDS011;58929;47.490;19.090;2023-07-28T14:21:40;5.18;;;2.00;;
71202;SDS011;58929;47.490;19.090;2023-07-28T14:24:09;2.00;;;1.77;;
71202;SDS011;58929;47.490;19.090;2023-07-28T14:26:37;4.60;;;2.28;;
71202;SDS011;58929;47.490;19.090;2023-07-28T14:29:07;2.85;;;1.95;;
71202;SDS011;58929;47.490;19.090;2023-07-28T14:31:35;2.83;;;1.65;;
71202;SDS011;58929;47.490;19.090;2023-07-28T14:34:04;2.63;;;1.80;;
71202;SDS011;58929;47.490;19.090;2023-07-28T14:36:32;4.53;;;2.33;;
71202;SDS011;58929;47.490;19.090;2023-07-28T14:39:02;7.05;;;2.22;;
71202;SDS011;58929;47.490;19.090;2023-07-28T14:41:30;3.53;;;2.22;;
71202;SDS011;58929;47.490;19.090;2023-07-28T14:43:59;2.38;;;1.73;;
71202;SDS011;58929;47.490;19.090;2023-07-28T14:46:29;2.15;;;1.60;;
71202;SDS011;58929;47.490;19.090;2023-07-28T14:48:57;3.05;;;1.88;;
71202;SDS011;58929;47.490;19.090;2023-07-28T14:51:25;2.55;;;1.92;;